Time;durP1;ratioP1;P1;durP2;ratioP2;P2;SDS_P1;SDS_P2;PMS_P1;PMS_P2;Temp;Humidity;BMP_temperature;BMP_pressure;BME280_temperature;BME280_humidity;BME280_pressure;Samples;Min_cycle;Max_cycle;Signal;HPM_P1;HPM_P2
2023/01/27 00:00:51;;;;;;;;;71.33;52.33;;;;;-146.39;100.00;62182.44;6282014;20;3646295;-54
2023/01/27 00:03:22;;;;;;;;;73.00;53.33;;;;;-146.39;100.00;62182.44;6311155;20;3651338;-54
2023/01/27 00:05:50;;;;;;;;;66.00;51.50;;;;;-146.39;100.00;62182.44;6308941;20;2873190;-55
2023/01/27 00:08:19;;;;;;;;;68.50;54.00;;;;;-146.39;100.00;62182.44;6281700;20;2864861;-53
2023/01/27 00:13:25;;;;;;;;;71.67;54.67;;;;;-146.39;100.00;62182.44;6279002;20;3638944;-56
2023/01/27 00:13:41;;;;;;;;;67.67;54.00;;;;;-146.39;100.00;62182.44;6312990;20;2874445;-55
2023/01/27 00:16:11;;;;;;;;;73.67;54.00;;;;;-146.39;100.00;62182.44;6312169;20;3631646;-54
2023/01/27 00:18:40;;;;;;;;;67.67;53.00;;;;;-146.39;100.00;62182.44;6312709;20;2883735;-53
2023/01/27 00:26:45;;;;;;;;;72.00;56.33;;;;;-146.39;100.00;62182.44;6312967;20;2882679;-52
2023/01/27 00:29:14;;;;;;;;;77.67;56.00;;;;;-146.39;100.00;62182.44;6308127;20;3646146;-54
2023/01/27 00:34:32;;;;;;;;;80.67;60.00;;;;;-146.39;100.00;62182.44;6309590;20;3630514;-52
2023/01/27 00:37:01;;;;;;;;;78.67;57.00;;;;;-146.39;100.00;62182.44;6312960;20;2896246;-53
2023/01/27 00:39:31;;;;;;;;;76.00;60.33;;;;;-146.39;100.00;62182.44;6307517;20;2875472;-52
2023/01/27 00:42:00;;;;;;;;;77.00;58.00;;;;;-146.39;100.00;62182.44;6314820;20;3654411;-54
2023/01/27 00:44:30;;;;;;;;;76.33;57.00;;;;;-146.39;100.00;62182.44;6308421;20;3645070;-54
2023/01/27 00:47:00;;;;;;;;;71.67;57.00;;;;;-146.39;100.00;62182.44;6307464;20;3633815;-54
2023/01/27 00:49:30;;;;;;;;;67.67;52.00;;;;;-146.39;100.00;62182.44;6310518;20;3626295;-54
2023/01/27 00:51:59;;;;;;;;;71.67;52.00;;;;;-146.39;100.00;62182.44;6308666;20;3641915;-54
2023/01/27 00:54:28;;;;;;;;;68.50;54.50;;;;;-146.39;100.00;62182.44;6306692;20;2871330;-50
2023/01/27 00:56:57;;;;;;;;;65.00;52.00;;;;;-146.39;100.00;62182.44;6277244;20;2873192;-52
2023/01/27 00:59:26;;;;;;;;;66.00;52.50;;;;;-146.39;100.00;62182.44;6280583;20;2863962;-54
2023/01/27 01:01:55;;;;;;;;;68.67;51.00;;;;;-146.39;100.00;62182.44;6276673;20;2880497;-56
2023/01/27 01:04:24;;;;;;;;;61.50;49.50;;;;;-146.39;100.00;62182.44;6310376;20;2860695;-56
2023/01/27 01:06:52;;;;;;;;;62.50;51.00;;;;;-146.39;100.00;62182.44;6275391;20;2500316;-54
2023/01/27 01:09:21;;;;;;;;;72.67;55.33;;;;;-146.39;100.00;62182.44;6274998;20;3636127;-56
2023/01/27 01:11:51;;;;;;;;;60.67;44.00;;;;;-146.39;100.00;62182.44;6311852;20;3641608;-53
2023/01/27 01:14:19;;;;;;;;;69.00;50.50;;;;;-146.39;100.00;62182.44;6311810;20;2879468;-53
2023/01/27 01:16:49;;;;;;;;;64.00;45.67;;;;;-146.39;100.00;62182.44;6276008;20;2877373;-51
2023/01/27 01:19:18;;;;;;;;;66.50;51.50;;;;;-146.39;100.00;62182.44;6311652;20;2867971;-53
2023/01/27 01:21:47;;;;;;;;;73.67;54.67;;;;;-146.39;100.00;62182.44;6277569;20;3638885;-51
2023/01/27 01:24:16;;;;;;;;;66.00;50.00;;;;;-146.39;100.00;62182.44;6309576;20;2871127;-53
2023/01/27 01:26:46;;;;;;;;;74.33;54.67;;;;;-146.39;100.00;62182.44;6278519;20;3640937;-56
2023/01/27 01:29:15;;;;;;;;;66.00;53.00;;;;;-146.39;100.00;62182.44;6308098;20;2879470;-51
2023/01/27 01:31:44;;;;;;;;;61.00;44.50;;;;;-146.39;100.00;62182.44;6307536;20;2871610;-55
2023/01/27 01:34:12;;;;;;;;;61.00;47.50;;;;;-146.39;100.00;62182.44;6272325;20;2500436;-53
2023/01/27 01:36:40;;;;;;;;;68.00;55.00;;;;;-146.39;100.00;62182.44;6270636;20;2500302;-53
2023/01/27 01:39:09;;;;;;;;;66.00;53.50;;;;;-146.39;100.00;62182.44;6283893;20;2863890;-54
2023/01/27 01:41:39;;;;;;;;;70.33;53.33;;;;;-146.39;100.00;62182.44;6286859;20;2883693;-52
2023/01/27 01:44:30;;;;;;;;;59.50;46.00;;;;;-146.39;100.00;62182.44;6310432;20;2858603;-52
2023/01/27 01:46:58;;;;;;;;;60.00;46.00;;;;;-146.39;100.00;62182.44;6282591;20;2863941;-54
2023/01/27 01:49:34;;;;;;;;;62.50;46.50;;;;;-146.39;100.00;62182.44;6280002;20;2489902;-52
2023/01/27 01:52:16;;;;;;;;;75.00;54.33;;;;;-146.39;100.00;62182.44;6283257;20;3657719;-56
2023/01/27 01:54:53;;;;;;;;;61.50;51.50;;;;;-146.39;100.00;62182.44;6309607;20;2492002;-54
2023/01/27 01:57:32;;;;;;;;;63.50;51.00;;;;;-146.39;100.00;62182.44;6279375;20;2854457;-50
2023/01/27 02:00:07;;;;;;;;;59.00;46.50;;;;;-146.39;100.00;62182.44;6280119;20;2860704;-56
2023/01/27 02:02:37;;;;;;;;;65.00;45.00;;;;;-146.39;100.00;62182.44;6284269;20;2495083;-53
2023/01/27 02:05:36;;;;;;;;;59.50;47.50;;;;;-146.39;100.00;62182.44;6279468;20;2848239;-52
2023/01/27 02:08:29;;;;;;;;;51.67;43.00;;;;;-146.39;100.00;62182.44;6282310;20;3601428;-53
2023/01/27 02:10:59;;;;;;;;;57.67;42.67;;;;;-146.39;100.00;62182.44;6280610;20;2871276;-53
2023/01/27 02:13:27;;;;;;;;;58.50;43.50;;;;;-146.39;100.00;62182.44;6314946;20;2846126;-56
2023/01/27 02:15:57;;;;;;;;;60.33;43.00;;;;;-146.39;100.00;62182.44;6282435;20;2883708;-50
2023/01/27 02:18:27;;;;;;;;;55.33;41.00;;;;;-146.39;100.00;62182.44;6313178;20;3629553;-54
2023/01/27 02:20:57;;;;;;;;;49.67;37.33;;;;;-146.39;100.00;62182.44;6314087;20;2878394;-53
2023/01/27 02:24:11;;;;;;;;;61.00;45.00;;;;;-146.39;100.00;62182.44;6314547;20;2854557;-55
2023/01/27 02:26:43;;;;;;;;;51.33;41.00;;;;;-146.39;100.00;62182.44;6282044;20;3612757;-56
2023/01/27 02:29:15;;;;;;;;;55.33;42.00;;;;;-146.39;100.00;62182.44;6312450;20;2865243;-54
2023/01/27 02:31:44;;;;;;;;;54.00;42.50;;;;;-146.39;100.00;62182.44;6313419;20;2856628;-53
2023/01/27 02:34:19;;;;;;;;;55.33;41.33;;;;;-146.39;100.00;62182.44;6282465;20;2866987;-51
2023/01/27 02:37:05;;;;;;;;;47.33;40.33;;;;;-146.39;100.00;62182.44;6310348;20;2868060;-53
2023/01/27 02:39:40;;;;;;;;;54.00;40.00;;;;;-146.39;100.00;62182.44;6313726;20;2865405;-55
2023/01/27 02:42:14;;;;;;;;;51.00;40.00;;;;;-146.39;100.00;62182.44;6314163;20;2877512;-54
2023/01/27 02:44:43;;;;;;;;;49.00;42.67;;;;;-146.39;100.00;62182.44;6311447;20;2860740;-55
2023/01/27 02:47:13;;;;;;;;;49.00;39.67;;;;;-146.39;100.00;62182.44;6314323;20;2872291;-53
2023/01/27 02:49:42;;;;;;;;;52.33;40.00;;;;;-146.39;100.00;62182.44;6309101;20;2888038;-54
2023/01/27 02:52:12;;;;;;;;;58.67;42.00;;;;;-146.39;100.00;62182.44;6317012;20;3619023;-52
2023/01/27 02:54:41;;;;;;;;;51.00;43.00;;;;;-146.39;100.00;62182.44;6311786;20;2874364;-52
2023/01/27 02:57:11;;;;;;;;;45.67;37.33;;;;;-146.39;100.00;62182.44;6310403;20;3624276;-53
2023/01/27 02:59:40;;;;;;;;;62.33;44.00;;;;;-146.39;100.00;62182.44;6313594;20;2877454;-51
2023/01/27 03:02:21;;;;;;;;;45.00;36.00;;;;;-146.39;100.00;62182.44;6309280;20;2875281;-51
2023/01/27 03:04:50;;;;;;;;;45.50;38.50;;;;;-146.39;100.00;62182.44;6280754;20;2861737;-52
2023/01/27 03:07:19;;;;;;;;;38.50;33.50;;;;;-146.39;100.00;62182.44;6282268;20;2857589;-54
2023/01/27 03:09:48;;;;;;;;;39.00;34.50;;;;;-146.39;100.00;62182.44;6282777;20;2847149;-53
2023/01/27 03:12:20;;;;;;;;;50.33;38.33;;;;;-146.39;100.00;62182.44;6286824;20;2883714;-54
2023/01/27 03:20:28;;;;;;;;;45.67;39.67;;;;;-146.39;100.00;62182.44;6310757;20;2873403;-52
2023/01/27 03:22:57;;;;;;;;;44.50;36.50;;;;;-146.39;100.00;62182.44;6312348;20;2873189;-51
2023/01/27 03:25:26;;;;;;;;;48.67;40.00;;;;;-146.39;100.00;62182.44;6282202;20;2874458;-55
2023/01/27 03:27:56;;;;;;;;;52.50;39.50;;;;;-146.39;100.00;62182.44;6310405;20;2863966;-54
2023/01/27 03:30:28;;;;;;;;;48.33;40.33;;;;;-146.39;100.00;62182.44;6278146;20;3626409;-54
2023/01/27 03:32:57;;;;;;;;;54.00;42.50;;;;;-146.39;100.00;62182.44;6313195;20;2836769;-53
2023/01/27 03:35:32;;;;;;;;;40.50;36.00;;;;;-146.39;100.00;62182.44;6279781;20;2856589;-53
2023/01/27 03:46:25;;;;;;;;;53.67;40.67;;;;;-146.39;100.00;62182.44;6314138;20;3629466;-53
2023/01/27 03:48:56;;;;;;;;;50.33;39.67;;;;;-146.39;100.00;62182.44;6310607;20;2883725;-52
2023/01/27 03:51:26;;;;;;;;;62.33;45.67;;;;;-146.39;100.00;62182.44;6312710;20;2875352;-55
2023/01/27 03:53:55;;;;;;;;;47.00;39.50;;;;;-146.39;100.00;62182.44;6310268;20;2864934;-53
2023/01/27 03:56:23;;;;;;;;;62.00;50.50;;;;;-146.39;100.00;62182.44;6280511;20;2852465;-53
2023/01/27 03:58:51;;;;;;;;;68.50;51.00;;;;;-146.39;100.00;62182.44;6278128;20;2500297;-52
2023/01/27 04:01:23;;;;;;;;;50.50;43.00;;;;;-146.39;100.00;62182.44;6275985;20;2868099;-53
2023/01/27 04:06:51;;;;;;;;;53.67;42.33;;;;;-146.39;100.00;62182.44;6310498;20;3630539;-56
2023/01/27 04:09:27;;;;;;;;;41.00;37.00;;;;;-146.39;100.00;62182.44;6310240;20;2566970;-54
2023/01/27 04:12:03;;;;;;;;;46.00;40.33;;;;;-146.39;100.00;62182.44;6278007;20;2873348;-54
2023/01/27 04:14:40;;;;;;;;;45.00;40.00;;;;;-146.39;100.00;62182.44;6311006;20;2873252;-52
2023/01/27 04:17:18;;;;;;;;;54.50;44.00;;;;;-146.39;100.00;62182.44;6304542;20;2851328;-53
2023/01/27 04:19:47;;;;;;;;;45.67;39.67;;;;;-146.39;100.00;62182.44;6275568;20;2868103;-54
2023/01/27 04:22:17;;;;;;;;;61.00;44.00;;;;;-146.39;100.00;62182.44;6310777;20;2873464;-55
2023/01/27 04:24:46;;;;;;;;;66.33;50.33;;;;;-146.39;100.00;62182.44;6282721;20;2875414;-55
2023/01/27 04:27:17;;;;;;;;;64.50;47.50;;;;;-146.39;100.00;62182.44;6313072;20;2873473;-55
2023/01/27 04:29:46;;;;;;;;;74.00;55.50;;;;;-146.39;100.00;62182.44;6281525;20;2879713;-54
2023/01/27 04:32:16;;;;;;;;;89.00;64.00;;;;;-146.39;100.00;62182.44;6281748;20;3655648;-52
2023/01/27 04:34:45;;;;;;;;;76.67;55.67;;;;;-146.39;100.00;62182.44;6311415;20;2890036;-54
2023/01/27 04:37:13;;;;;;;;;61.50;49.00;;;;;-146.39;100.00;62182.44;6304667;20;2496297;-53
2023/01/27 04:39:44;;;;;;;;;54.50;45.50;;;;;-146.39;100.00;62182.44;6280292;20;2850285;-52
2023/01/27 04:42:12;;;;;;;;;53.00;41.00;;;;;-146.39;100.00;62182.44;6272949;20;2495141;-51
2023/01/27 04:44:42;;;;;;;;;84.67;58.33;;;;;-146.39;100.00;62182.44;6272791;20;3650259;-54
2023/01/27 04:47:12;;;;;;;;;67.67;51.67;;;;;-146.39;100.00;62182.44;6309053;20;2873319;-54
2023/01/27 04:49:41;;;;;;;;;71.00;54.50;;;;;-146.39;100.00;62182.44;6309069;20;2883621;-55
2023/01/27 04:52:10;;;;;;;;;67.00;51.00;;;;;-146.39;100.00;62182.44;6273122;20;2868114;-54
2023/01/27 04:54:37;;;;;;;;;58.00;45.50;;;;;-146.39;100.00;62182.44;6274127;20;2499475;-49
2023/01/27 04:57:06;;;;;;;;;64.00;47.50;;;;;-146.39;100.00;62182.44;6282738;20;2868055;-54
2023/01/27 04:59:36;;;;;;;;;64.67;49.33;;;;;-146.39;100.00;62182.44;6276886;20;2855587;-53
2023/01/27 05:02:04;;;;;;;;;63.00;50.50;;;;;-146.39;100.00;62182.44;6307461;20;2861879;-53
2023/01/27 05:04:33;;;;;;;;;62.00;48.50;;;;;-146.39;100.00;62182.44;6278662;20;2869123;-52
2023/01/27 05:07:03;;;;;;;;;63.00;48.00;;;;;-146.39;100.00;62182.44;6275354;20;3629570;-54
2023/01/27 05:09:32;;;;;;;;;73.00;54.00;;;;;-146.39;100.00;62182.44;6309096;20;3641274;-52
2023/01/27 05:12:01;;;;;;;;;56.00;44.00;;;;;-146.39;100.00;62182.44;6312568;20;2849336;-54
2023/01/27 05:14:30;;;;;;;;;63.00;45.50;;;;;-146.39;100.00;62182.44;6277061;20;2872159;-54
2023/01/27 05:16:57;;;;;;;;;56.50;45.00;;;;;-146.39;100.00;62182.44;6278766;20;2497374;-58
2023/01/27 05:19:26;;;;;;;;;65.00;44.50;;;;;-146.39;100.00;62182.44;6273664;20;2883646;-53
2023/01/27 05:21:55;;;;;;;;;60.00;48.00;;;;;-146.39;100.00;62182.44;6276971;20;2867096;-54
2023/01/27 05:24:24;;;;;;;;;52.00;41.50;;;;;-146.39;100.00;62182.44;6280729;20;2858614;-50
2023/01/27 05:26:53;;;;;;;;;54.00;44.50;;;;;-146.39;100.00;62182.44;6277825;20;2485720;-51
2023/01/27 05:29:22;;;;;;;;;57.00;39.00;;;;;-146.39;100.00;62182.44;6280811;20;2883704;-54
2023/01/27 05:31:50;;;;;;;;;59.50;44.00;;;;;-146.39;100.00;62182.44;6306120;20;2489896;-53
2023/01/27 05:34:20;;;;;;;;;60.00;45.00;;;;;-146.39;100.00;62182.44;6279103;20;2869250;-49
2023/01/27 05:36:48;;;;;;;;;54.00;44.00;;;;;-146.39;100.00;62182.44;6310197;20;2492958;-49
2023/01/27 05:39:17;;;;;;;;;59.00;43.50;;;;;-146.39;100.00;62182.44;6281709;20;2856553;-53
2023/01/27 05:41:47;;;;;;;;;84.00;61.67;;;;;-146.39;100.00;62182.44;6280980;20;3644073;-53
2023/01/27 05:44:16;;;;;;;;;79.33;62.00;;;;;-146.39;100.00;62182.44;6311626;20;2887807;-54
2023/01/27 05:46:45;;;;;;;;;75.00;56.00;;;;;-146.39;100.00;62182.44;6311508;20;2695147;-54
2023/01/27 05:49:14;;;;;;;;;68.00;50.67;;;;;-146.39;100.00;62182.44;6310260;20;3623246;-53
2023/01/27 05:51:44;;;;;;;;;79.33;57.67;;;;;-146.39;100.00;62182.44;6310043;20;3647149;-55
2023/01/27 05:54:13;;;;;;;;;89.33;63.67;;;;;-146.39;100.00;62182.44;6310841;20;3661706;-53
2023/01/27 05:56:43;;;;;;;;;78.33;56.00;;;;;-146.39;100.00;62182.44;6310952;20;3648186;-53
2023/01/27 05:59:12;;;;;;;;;71.00;55.50;;;;;-146.39;100.00;62182.44;6312894;20;2883613;-53
2023/01/27 06:01:41;;;;;;;;;79.00;60.00;;;;;-146.39;100.00;62182.44;6279698;20;3638154;-53
2023/01/27 06:04:11;;;;;;;;;83.67;61.33;;;;;-146.39;100.00;62182.44;6310816;20;3647155;-53
2023/01/27 06:06:40;;;;;;;;;91.33;65.33;;;;;-146.39;100.00;62182.44;6309423;20;3655478;-55
2023/01/27 06:09:10;;;;;;;;;74.33;58.33;;;;;-146.39;100.00;62182.44;6308051;20;2894117;-55
2023/01/27 06:11:40;;;;;;;;;71.33;52.33;;;;;-146.39;100.00;62182.44;6311477;20;3635690;-55
2023/01/27 06:14:08;;;;;;;;;60.00;47.50;;;;;-146.39;100.00;62182.44;6311945;20;2847143;-54
2023/01/27 06:16:38;;;;;;;;;70.67;48.00;;;;;-146.39;100.00;62182.44;6279790;20;2878542;-54
2023/01/27 06:19:09;;;;;;;;;69.00;52.33;;;;;-146.39;100.00;62182.44;6310939;20;3627394;-54
2023/01/27 06:21:38;;;;;;;;;49.00;40.00;;;;;-146.39;100.00;62182.44;6310941;20;2847209;-56
2023/01/27 06:24:06;;;;;;;;;62.50;47.00;;;;;-146.39;100.00;62182.44;6276931;20;2501821;-50
2023/01/27 06:26:36;;;;;;;;;65.67;50.67;;;;;-146.39;100.00;62182.44;6285276;20;2873270;-53
2023/01/27 06:29:04;;;;;;;;;53.00;45.00;;;;;-146.39;100.00;62182.44;6316491;20;2866022;-54
2023/01/27 06:31:32;;;;;;;;;66.50;53.00;;;;;-146.39;100.00;62182.44;6281348;20;2500398;-52
2023/01/27 06:34:02;;;;;;;;;74.33;58.33;;;;;-146.39;100.00;62182.44;6284155;20;2883657;-55
2023/01/27 06:36:32;;;;;;;;;104.33;89.67;;;;;-146.39;100.00;62182.44;6312377;20;3689849;-55
2023/01/27 06:39:01;;;;;;;;;93.00;72.67;;;;;-146.39;100.00;62182.44;6313457;20;3653574;-54
2023/01/27 06:41:30;;;;;;;;;71.00;58.00;;;;;-146.39;100.00;62182.44;6314059;20;2870169;-54
2023/01/27 06:43:58;;;;;;;;;69.00;54.00;;;;;-146.39;100.00;62182.44;6281382;20;2499260;-55
2023/01/27 06:46:27;;;;;;;;;81.67;61.33;;;;;-146.39;100.00;62182.44;6280343;20;3628434;-52
2023/01/27 06:48:56;;;;;;;;;71.00;54.00;;;;;-146.39;100.00;62182.44;6317458;20;2881598;-51
2023/01/27 06:51:25;;;;;;;;;103.67;77.67;;;;;-146.39;100.00;62182.44;6283875;20;3689214;-53
2023/01/27 06:53:54;;;;;;;;;78.67;59.67;;;;;-146.39;100.00;62182.44;6318804;20;3642960;-56
2023/01/27 06:56:24;;;;;;;;;82.00;58.67;;;;;-146.39;100.00;62182.44;6314694;20;3656516;-52
2023/01/27 06:58:53;;;;;;;;;88.67;59.33;;;;;-146.39;100.00;62182.44;6314896;20;3659616;-56
2023/01/27 07:01:23;;;;;;;;;73.00;55.33;;;;;-146.39;100.00;62182.44;6313289;20;2883922;-54
2023/01/27 07:03:51;;;;;;;;;61.00;46.50;;;;;-146.39;100.00;62182.44;6314430;20;2492980;-54
2023/01/27 07:06:20;;;;;;;;;75.33;58.33;;;;;-146.39;100.00;62182.44;6284902;20;3632651;-54
2023/01/27 07:08:50;;;;;;;;;89.67;67.67;;;;;-146.39;100.00;62182.44;6316687;20;3643109;-54
2023/01/27 07:11:24;;;;;;;;;69.67;51.00;;;;;-146.39;100.00;62182.44;6314204;20;2882643;-54
2023/01/27 07:13:52;;;;;;;;;59.50;47.50;;;;;-146.39;100.00;62182.44;6314608;20;2865925;-56
2023/01/27 07:16:21;;;;;;;;;52.00;39.50;;;;;-146.39;100.00;62182.44;6284097;20;2865892;-55
2023/01/27 07:18:50;;;;;;;;;53.00;43.00;;;;;-146.39;100.00;62182.44;6284721;20;2857854;-53
2023/01/27 07:21:18;;;;;;;;;52.00;44.00;;;;;-146.39;100.00;62182.44;6285040;20;2579475;-52
2023/01/27 07:23:47;;;;;;;;;48.00;39.00;;;;;-146.39;100.00;62182.44;6285161;20;2867182;-54
2023/01/27 07:26:17;;;;;;;;;47.00;39.00;;;;;-146.39;100.00;62182.44;6314863;20;3614929;-54
2023/01/27 07:28:54;;;;;;;;;44.00;38.50;;;;;-146.39;100.00;62182.44;6317302;20;2875376;-53
2023/01/27 07:31:23;;;;;;;;;35.50;31.50;;;;;-146.39;100.00;62182.44;6285631;20;2852358;-50
2023/01/27 07:33:55;;;;;;;;;47.67;36.67;;;;;-146.39;100.00;62182.44;6282899;20;2872158;-52
2023/01/27 07:36:25;;;;;;;;;43.67;34.67;;;;;-146.39;100.00;62182.44;6315921;20;2863948;-50
2023/01/27 07:38:54;;;;;;;;;38.00;30.00;;;;;-146.39;100.00;62182.44;6314178;20;2873242;-55
2023/01/27 07:41:24;;;;;;;;;37.00;31.00;;;;;-146.39;100.00;62182.44;6280643;20;2849248;-55
2023/01/27 07:43:53;;;;;;;;;39.00;33.00;;;;;-146.39;100.00;62182.44;6284865;20;2866987;-55
2023/01/27 07:46:22;;;;;;;;;51.33;39.67;;;;;-146.39;100.00;62182.44;6280342;20;3635774;-54
2023/01/27 07:48:52;;;;;;;;;41.33;33.33;;;;;-146.39;100.00;62182.44;6315159;20;2860414;-53
2023/01/27 07:51:21;;;;;;;;;41.50;34.00;;;;;-146.39;100.00;62182.44;6314076;20;2864847;-55
2023/01/27 07:53:49;;;;;;;;;30.00;29.00;;;;;-146.39;100.00;62182.44;6277430;20;2500470;-53
2023/01/27 07:56:19;;;;;;;;;47.33;35.33;;;;;-146.39;100.00;62182.44;6281755;20;2871292;-55
2023/01/27 07:58:47;;;;;;;;;38.00;32.50;;;;;-146.39;100.00;62182.44;6315610;20;2850370;-55
2023/01/27 08:01:17;;;;;;;;;50.33;40.00;;;;;-146.39;100.00;62182.44;6280694;20;2880709;-54
2023/01/27 08:03:45;;;;;;;;;39.00;32.50;;;;;-146.39;100.00;62182.44;6312355;20;2865370;-50
2023/01/27 08:06:14;;;;;;;;;42.50;36.00;;;;;-146.39;100.00;62182.44;6284252;20;2867395;-55
2023/01/27 08:08:43;;;;;;;;;44.00;33.50;;;;;-146.39;100.00;62182.44;6283303;20;2856548;-55
2023/01/27 08:11:14;;;;;;;;;42.33;35.33;;;;;-146.39;100.00;62182.44;6280901;20;2869032;-52
2023/01/27 08:13:43;;;;;;;;;35.50;31.50;;;;;-146.39;100.00;62182.44;6311280;20;2847187;-54
2023/01/27 08:16:14;;;;;;;;;38.00;33.50;;;;;-146.39;100.00;62182.44;6276674;20;2500381;-55
2023/01/27 08:18:43;;;;;;;;;29.00;26.00;;;;;-146.39;100.00;62182.44;6283591;20;2852367;-54
2023/01/27 08:21:12;;;;;;;;;34.00;23.50;;;;;-146.39;100.00;62182.44;6282584;20;2857580;-52
2023/01/27 08:23:41;;;;;;;;;37.00;30.00;;;;;-146.39;100.00;62182.44;6284415;20;2500288;-49
2023/01/27 08:26:09;;;;;;;;;45.50;33.50;;;;;-146.39;100.00;62182.44;6279832;20;2873236;-53
2023/01/27 08:28:40;;;;;;;;;39.50;36.00;;;;;-146.39;100.00;62182.44;6284997;20;2849397;-55
2023/01/27 08:31:14;;;;;;;;;44.00;35.00;;;;;-146.39;100.00;62182.44;6282831;20;2878530;-51
2023/01/27 08:33:50;;;;;;;;;42.50;30.50;;;;;-146.39;100.00;62182.44;6308197;20;2881615;-51
2023/01/27 08:36:21;;;;;;;;;36.50;31.50;;;;;-146.39;100.00;62182.44;6279833;20;2847203;-52
2023/01/27 08:38:50;;;;;;;;;32.67;25.67;;;;;-146.39;100.00;62182.44;6282006;20;3591145;-51
2023/01/27 08:41:25;;;;;;;;;61.67;42.00;;;;;-146.39;100.00;62182.44;6275968;20;3637901;-52
2023/01/27 08:43:54;;;;;;;;;32.50;27.50;;;;;-146.39;100.00;62182.44;6314779;20;2861971;-54
2023/01/27 08:46:24;;;;;;;;;40.00;30.00;;;;;-146.39;100.00;62182.44;6283422;20;2859664;-52
2023/01/27 08:48:52;;;;;;;;;42.00;29.50;;;;;-146.39;100.00;62182.44;6285567;20;2875289;-54
2023/01/27 08:51:21;;;;;;;;;36.50;31.00;;;;;-146.39;100.00;62182.44;6282783;20;2842992;-52
2023/01/27 08:53:50;;;;;;;;;61.00;44.50;;;;;-146.39;100.00;62182.44;6281018;20;2858646;-55
2023/01/27 08:56:19;;;;;;;;;39.00;32.00;;;;;-146.39;100.00;62182.44;6279330;20;2869114;-53
2023/01/27 08:58:51;;;;;;;;;56.67;40.67;;;;;-146.39;100.00;62182.44;6281101;20;3642184;-55
2023/01/27 09:01:20;;;;;;;;;43.00;35.00;;;;;-146.39;100.00;62182.44;6307141;20;2860777;-53
2023/01/27 09:03:49;;;;;;;;;44.50;37.00;;;;;-146.39;100.00;62182.44;6280904;20;2871145;-53
2023/01/27 09:06:20;;;;;;;;;45.00;37.00;;;;;-146.39;100.00;62182.44;6279467;20;2818039;-54
2023/01/27 09:09:07;;;;;;;;;43.50;33.50;;;;;-146.39;100.00;62182.44;6278742;20;2856812;-55
2023/01/27 09:11:43;;;;;;;;;46.00;40.00;;;;;-146.39;100.00;62182.44;6282814;20;2859777;-52
2023/01/27 09:14:13;;;;;;;;;48.67;35.33;;;;;-146.39;100.00;62182.44;6310141;20;2878579;-49
2023/01/27 09:16:42;;;;;;;;;46.00;39.00;;;;;-146.39;100.00;62182.44;6311025;20;2869525;-52
2023/01/27 09:19:12;;;;;;;;;52.00;40.00;;;;;-146.39;100.00;62182.44;6282024;20;2875394;-54
2023/01/27 09:21:41;;;;;;;;;52.00;43.50;;;;;-146.39;100.00;62182.44;6313974;20;2846241;-55
2023/01/27 09:24:10;;;;;;;;;45.50;39.50;;;;;-146.39;100.00;62182.44;6280909;20;2872312;-51
2023/01/27 09:26:39;;;;;;;;;48.67;35.33;;;;;-146.39;100.00;62182.44;6281591;20;2885822;-53
2023/01/27 09:29:09;;;;;;;;;41.67;29.67;;;;;-146.39;100.00;62182.44;6315062;20;2874452;-52
2023/01/27 09:31:37;;;;;;;;;47.50;39.50;;;;;-146.39;100.00;62182.44;6312178;20;2864932;-53
2023/01/27 09:34:07;;;;;;;;;66.00;46.00;;;;;-146.39;100.00;62182.44;6279999;20;2866986;-55
2023/01/27 09:36:44;;;;;;;;;60.00;47.33;;;;;-146.39;100.00;62182.44;6282344;20;2862800;-52
2023/01/27 09:39:18;;;;;;;;;51.33;38.67;;;;;-146.39;100.00;62182.44;6311212;20;2882677;-51
2023/01/27 09:42:43;;;;;;;;;56.00;44.00;;;;;-146.39;100.00;62182.44;6313249;20;2861975;-53
2023/01/27 09:45:50;;;;;;;;;70.33;52.67;;;;;-146.39;100.00;62182.44;6282503;20;3634652;-54
2023/01/27 09:49:03;;;;;;;;;66.50;51.50;;;;;-146.39;100.00;62182.44;6311530;20;2868013;-54
2023/01/27 09:52:33;;;;;;;;;48.50;35.00;;;;;-146.39;100.00;62182.44;6277721;20;2876473;-56
2023/01/27 09:55:38;;;;;;;;;64.00;50.00;;;;;-146.39;100.00;62182.44;6274413;20;2500310;-53
2023/01/27 09:58:30;;;;;;;;;46.00;34.00;;;;;-146.39;100.00;62182.44;6281959;20;2877428;-52
2023/01/27 10:01:47;;;;;;;;;40.00;36.00;;;;;-146.39;100.00;62182.44;6309186;20;2852383;-54
2023/01/27 10:05:10;;;;;;;;;37.67;35.33;;;;;-146.39;100.00;62182.44;6284144;20;3596108;-55
2023/01/27 10:08:33;;;;;;;;;23.00;23.00;;;;;-146.39;100.00;62182.44;6281400;20;2834711;-56
2023/01/27 10:11:17;;;;;;;;;23.50;20.50;;;;;-146.39;100.00;62182.44;6279729;20;2500381;-54
2023/01/27 10:14:16;;;;;;;;;32.00;28.00;;;;;-146.39;100.00;62182.44;6283308;20;2500369;-54
2023/01/27 10:17:40;;;;;;;;;39.00;34.00;;;;;-146.39;100.00;62182.44;6282041;20;2500310;-51
2023/01/27 10:20:51;;;;;;;;;39.50;28.50;;;;;-146.39;100.00;62182.44;6280163;20;2863913;-53
2023/01/27 10:23:46;;;;;;;;;32.00;28.50;;;;;-146.39;100.00;62182.44;6280008;20;2492075;-52
2023/01/27 10:26:31;;;;;;;;;28.50;23.50;;;;;-146.39;100.00;62182.44;6287164;20;2824373;-53
2023/01/27 10:29:10;;;;;;;;;37.00;26.50;;;;;-146.39;100.00;62182.44;6281648;20;2500575;-55
2023/01/27 10:32:29;;;;;;;;;35.50;28.50;;;;;-146.39;100.00;62182.44;6282847;20;2500352;-55
2023/01/27 10:35:47;;;;;;;;;36.50;28.50;;;;;-146.39;100.00;62182.44;6283079;20;2500300;-53
2023/01/27 10:39:22;;;;;;;;;49.00;40.33;;;;;-146.39;100.00;62182.44;6283943;20;2870544;-54
2023/01/27 10:42:27;;;;;;;;;36.50;28.00;;;;;-146.39;100.00;62182.44;6311006;20;2867432;-52
2023/01/27 10:45:28;;;;;;;;;35.50;27.00;;;;;-146.39;100.00;62182.44;6284569;20;2853411;-50
2023/01/27 10:48:42;;;;;;;;;32.00;30.50;;;;;-146.39;100.00;62182.44;6279118;20;2500290;-53
2023/01/27 10:51:32;;;;;;;;;36.00;30.00;;;;;-146.39;100.00;62182.44;6281847;20;2500285;-52
2023/01/27 10:54:25;;;;;;;;;32.50;31.50;;;;;-146.39;100.00;62182.44;6285580;20;2852363;-53
2023/01/27 10:57:18;;;;;;;;;39.50;32.00;;;;;-146.39;100.00;62182.44;6280794;20;2500290;-53
2023/01/27 11:00:12;;;;;;;;;30.50;26.00;;;;;-146.39;100.00;62182.44;6278398;20;2500342;-53
2023/01/27 11:03:09;;;;;;;;;33.50;26.50;;;;;-146.39;100.00;62182.44;6282075;20;2500322;-50
2023/01/27 11:05:47;;;;;;;;;28.33;24.33;;;;;-146.39;100.00;62182.44;6282727;20;3581597;-55
2023/01/27 11:08:34;;;;;;;;;25.50;21.00;;;;;-146.39;100.00;62182.44;6281972;20;2500292;-53
2023/01/27 11:14:27;;;;;;;;;38.00;28.67;;;;;-146.39;100.00;62182.44;6282980;20;3601291;-49
2023/01/27 11:17:45;;;;;;;;;32.00;24.00;;;;;-146.39;100.00;62182.44;6276896;20;2500286;-54
2023/01/27 11:20:37;;;;;;;;;30.00;25.00;;;;;-146.39;100.00;62182.44;6282697;20;2838164;-53
2023/01/27 11:23:37;;;;;;;;;34.50;27.00;;;;;-146.39;100.00;62182.44;6281292;20;2500393;-52
2023/01/27 11:26:33;;;;;;;;;43.00;34.00;;;;;-146.39;100.00;62182.44;6281952;20;2857630;-53
2023/01/27 11:29:41;;;;;;;;;39.00;32.50;;;;;-146.39;100.00;62182.44;6281621;20;2853462;-53
2023/01/27 11:33:06;;;;;;;;;34.00;29.50;;;;;-146.39;100.00;62182.44;6282326;20;2844157;-50
2023/01/27 11:35:35;;;;;;;;;61.33;44.00;;;;;-146.39;100.00;62182.44;6280468;20;3634617;-49
2023/01/27 11:38:21;;;;;;;;;52.67;36.33;;;;;-146.39;100.00;62182.44;6313228;20;2880888;-56
2023/01/27 11:40:52;;;;;;;;;40.50;32.50;;;;;-146.39;100.00;62182.44;6312720;20;2865926;-52
2023/01/27 11:43:25;;;;;;;;;68.00;50.00;;;;;-146.39;100.00;62182.44;6279058;20;2882695;-52